sensor_id;sensor_type;location;lat;lon;timestamp;P1;durP1;ratioP1;P2;durP2;ratioP2
30384;SDS011;17181;51.002;4.096;2022-10-26T00:01:26;6.90;;;3.40;;
30384;SDS011;17181;51.002;4.096;2022-10-26T00:03:53;4.63;;;2.87;;
30384;SDS011;17181;51.002;4.096;2022-10-26T00:06:21;2.20;;;2.00;;
30384;SDS011;17181;51.002;4.096;2022-10-26T00:08:53;3.33;;;2.07;;
30384;SDS011;17181;51.002;4.096;2022-10-26T00:11:19;3.23;;;2.50;;
30384;SDS011;17181;51.002;4.096;2022-10-26T00:13:46;3.27;;;2.70;;
30384;SDS011;17181;51.002;4.096;2022-10-26T00:16:22;3.37;;;2.20;;
30384;SDS011;17181;51.002;4.096;2022-10-26T00:18:50;9.70;;;2.30;;
30384;SDS011;17181;51.002;4.096;2022-10-26T00:21:17;4.37;;;2.60;;
30384;SDS011;17181;51.002;4.096;2022-10-26T00:23:43;5.47;;;1.97;;
30384;SDS011;17181;51.002;4.096;2022-10-26T00:26:09;4.47;;;2.60;;
30384;SDS011;17181;51.002;4.096;2022-10-26T00:28:35;4.67;;;2.67;;
30384;SDS011;17181;51.002;4.096;2022-10-26T00:31:01;10.93;;;3.00;;
30384;SDS011;17181;51.002;4.096;2022-10-26T00:33:32;5.47;;;3.00;;
30384;SDS011;17181;51.002;4.096;2022-10-26T00:35:58;5.93;;;2.20;;
30384;SDS011;17181;51.002;4.096;2022-10-26T00:38:24;3.83;;;2.20;;
30384;SDS011;17181;51.002;4.096;2022-10-26T00:40:50;2.87;;;2.10;;
30384;SDS011;17181;51.002;4.096;2022-10-26T00:45:51;6.47;;;2.30;;
30384;SDS011;17181;51.002;4.096;2022-10-26T00:48:21;4.70;;;2.40;;
30384;SDS011;17181;51.002;4.096;2022-10-26T00:50:53;8.37;;;3.03;;
30384;SDS011;17181;51.002;4.096;2022-10-26T00:53:21;5.97;;;2.70;;
30384;SDS011;17181;51.002;4.096;2022-10-26T00:55:48;6.00;;;2.50;;
30384;SDS011;17181;51.002;4.096;2022-10-26T00:58:16;3.53;;;2.60;;
30384;SDS011;17181;51.002;4.096;2022-10-26T01:00:43;12.77;;;3.23;;
30384;SDS011;17181;51.002;4.096;2022-10-26T01:03:09;5.47;;;2.30;;
30384;SDS011;17181;51.002;4.096;2022-10-26T01:05:36;3.87;;;3.13;;
30384;SDS011;17181;51.002;4.096;2022-10-26T01:08:05;8.47;;;2.30;;
30384;SDS011;17181;51.002;4.096;2022-10-26T01:10:31;4.43;;;2.33;;
30384;SDS011;17181;51.002;4.096;2022-10-26T01:12:59;2.77;;;2.13;;
30384;SDS011;17181;51.002;4.096;2022-10-26T01:15:50;3.13;;;2.23;;
30384;SDS011;17181;51.002;4.096;2022-10-26T01:18:13;9.13;;;2.20;;
30384;SDS011;17181;51.002;4.096;2022-10-26T01:23:12;8.77;;;1.90;;
30384;SDS011;17181;51.002;4.096;2022-10-26T01:31:47;2.10;;;1.93;;
30384;SDS011;17181;51.002;4.096;2022-10-26T01:34:21;7.30;;;2.10;;
30384;SDS011;17181;51.002;4.096;2022-10-26T01:36:55;9.57;;;3.23;;
30384;SDS011;17181;51.002;4.096;2022-10-26T01:39:28;7.07;;;3.47;;
30384;SDS011;17181;51.002;4.096;2022-10-26T01:42:08;2.07;;;1.60;;
30384;SDS011;17181;51.002;4.096;2022-10-26T01:44:51;5.07;;;2.60;;
30384;SDS011;17181;51.002;4.096;2022-10-26T01:47:21;4.33;;;2.03;;
30384;SDS011;17181;51.002;4.096;2022-10-26T01:49:50;8.33;;;2.43;;
30384;SDS011;17181;51.002;4.096;2022-10-26T01:52:20;9.80;;;3.00;;
30384;SDS011;17181;51.002;4.096;2022-10-26T01:54:45;2.60;;;2.40;;
30384;SDS011;17181;51.002;4.096;2022-10-26T01:57:12;9.57;;;2.33;;
30384;SDS011;17181;51.002;4.096;2022-10-26T01:59:45;2.17;;;1.97;;
30384;SDS011;17181;51.002;4.096;2022-10-26T02:05:29;11.80;;;2.10;;
30384;SDS011;17181;51.002;4.096;2022-10-26T02:15:58;3.37;;;2.07;;
30384;SDS011;17181;51.002;4.096;2022-10-26T02:21:10;4.57;;;2.07;;
30384;SDS011;17181;51.002;4.096;2022-10-26T02:23:41;7.27;;;2.30;;
30384;SDS011;17181;51.002;4.096;2022-10-26T02:26:09;4.60;;;1.83;;
30384;SDS011;17181;51.002;4.096;2022-10-26T02:28:38;5.63;;;2.07;;
30384;SDS011;17181;51.002;4.096;2022-10-26T02:31:09;2.50;;;1.87;;
30384;SDS011;17181;51.002;4.096;2022-10-26T02:33:38;2.30;;;1.17;;
30384;SDS011;17181;51.002;4.096;2022-10-26T02:36:07;3.23;;;1.60;;
30384;SDS011;17181;51.002;4.096;2022-10-26T02:38:35;2.00;;;1.80;;
30384;SDS011;17181;51.002;4.096;2022-10-26T02:41:04;4.93;;;1.23;;
30384;SDS011;17181;51.002;4.096;2022-10-26T02:43:32;4.60;;;1.87;;
30384;SDS011;17181;51.002;4.096;2022-10-26T02:46:07;4.13;;;2.00;;
30384;SDS011;17181;51.002;4.096;2022-10-26T02:48:35;3.13;;;1.57;;
30384;SDS011;17181;51.002;4.096;2022-10-26T02:51:19;3.43;;;1.80;;
30384;SDS011;17181;51.002;4.096;2022-10-26T02:54:00;2.63;;;1.73;;
30384;SDS011;17181;51.002;4.096;2022-10-26T02:56:33;7.17;;;1.53;;
30384;SDS011;17181;51.002;4.096;2022-10-26T02:59:07;5.80;;;1.87;;
30384;SDS011;17181;51.002;4.096;2022-10-26T03:01:35;2.33;;;1.70;;
30384;SDS011;17181;51.002;4.096;2022-10-26T03:04:01;2.53;;;1.50;;
30384;SDS011;17181;51.002;4.096;2022-10-26T03:06:27;1.60;;;1.50;;
30384;SDS011;17181;51.002;4.096;2022-10-26T03:08:53;1.67;;;1.57;;
30384;SDS011;17181;51.002;4.096;2022-10-26T03:11:19;6.20;;;2.00;;
30384;SDS011;17181;51.002;4.096;2022-10-26T03:13:45;6.47;;;1.30;;
30384;SDS011;17181;51.002;4.096;2022-10-26T03:16:10;7.37;;;1.67;;
30384;SDS011;17181;51.002;4.096;2022-10-26T03:18:36;1.23;;;1.13;;
30384;SDS011;17181;51.002;4.096;2022-10-26T03:21:02;2.60;;;1.63;;
30384;SDS011;17181;51.002;4.096;2022-10-26T03:23:27;4.83;;;1.30;;
30384;SDS011;17181;51.002;4.096;2022-10-26T03:25:57;3.27;;;1.63;;
30384;SDS011;17181;51.002;4.096;2022-10-26T03:28:23;1.63;;;1.20;;
30384;SDS011;17181;51.002;4.096;2022-10-26T03:30:49;4.17;;;1.83;;
30384;SDS011;17181;51.002;4.096;2022-10-26T03:33:16;5.53;;;1.67;;
30384;SDS011;17181;51.002;4.096;2022-10-26T03:35:41;2.60;;;1.47;;
30384;SDS011;17181;51.002;4.096;2022-10-26T03:38:07;4.87;;;1.50;;
30384;SDS011;17181;51.002;4.096;2022-10-26T03:40:34;1.53;;;1.40;;
30384;SDS011;17181;51.002;4.096;2022-10-26T03:43:00;1.90;;;1.10;;
30384;SDS011;17181;51.002;4.096;2022-10-26T03:45:26;3.20;;;1.17;;
30384;SDS011;17181;51.002;4.096;2022-10-26T03:47:52;2.77;;;1.70;;
30384;SDS011;17181;51.002;4.096;2022-10-26T03:50:19;5.20;;;1.50;;
30384;SDS011;17181;51.002;4.096;2022-10-26T03:52:46;3.50;;;2.00;;
30384;SDS011;17181;51.002;4.096;2022-10-26T03:55:13;4.47;;;1.17;;
30384;SDS011;17181;51.002;4.096;2022-10-26T03:57:42;1.20;;;1.10;;
30384;SDS011;17181;51.002;4.096;2022-10-26T04:00:10;3.13;;;1.53;;
30384;SDS011;17181;51.002;4.096;2022-10-26T04:02:40;4.30;;;1.67;;
30384;SDS011;17181;51.002;4.096;2022-10-26T04:05:07;1.80;;;1.70;;
30384;SDS011;17181;51.002;4.096;2022-10-26T04:07:33;4.10;;;1.10;;
30384;SDS011;17181;51.002;4.096;2022-10-26T04:09:59;1.63;;;1.20;;
30384;SDS011;17181;51.002;4.096;2022-10-26T04:12:24;5.00;;;1.70;;
30384;SDS011;17181;51.002;4.096;2022-10-26T04:14:50;3.60;;;1.60;;
30384;SDS011;17181;51.002;4.096;2022-10-26T04:17:16;7.13;;;1.67;;
30384;SDS011;17181;51.002;4.096;2022-10-26T04:19:42;3.83;;;1.27;;
30384;SDS011;17181;51.002;4.096;2022-10-26T04:22:07;3.07;;;1.07;;
30384;SDS011;17181;51.002;4.096;2022-10-26T04:24:33;3.83;;;1.43;;
30384;SDS011;17181;51.002;4.096;2022-10-26T04:26:59;3.57;;;1.60;;
30384;SDS011;17181;51.002;4.096;2022-10-26T04:29:25;1.60;;;1.50;;
30384;SDS011;17181;51.002;4.096;2022-10-26T04:31:50;2.67;;;1.50;;
30384;SDS011;17181;51.002;4.096;2022-10-26T04:34:16;5.07;;;1.57;;
30384;SDS011;17181;51.002;4.096;2022-10-26T04:36:42;5.10;;;1.47;;
30384;SDS011;17181;51.002;4.096;2022-10-26T04:39:08;5.27;;;1.67;;
30384;SDS011;17181;51.002;4.096;2022-10-26T04:41:33;1.10;;;1.07;;
30384;SDS011;17181;51.002;4.096;2022-10-26T04:43:59;3.03;;;1.50;;
30384;SDS011;17181;51.002;4.096;2022-10-26T04:46:25;1.00;;;1.00;;
30384;SDS011;17181;51.002;4.096;2022-10-26T04:48:51;3.33;;;1.30;;
30384;SDS011;17181;51.002;4.096;2022-10-26T04:51:16;6.43;;;2.00;;
30384;SDS011;17181;51.002;4.096;2022-10-26T04:53:42;4.00;;;2.40;;
30384;SDS011;17181;51.002;4.096;2022-10-26T04:56:08;4.67;;;2.10;;
30384;SDS011;17181;51.002;4.096;2022-10-26T04:58:34;5.27;;;1.40;;
30384;SDS011;17181;51.002;4.096;2022-10-26T05:01:00;0.93;;;0.93;;
30384;SDS011;17181;51.002;4.096;2022-10-26T05:03:27;2.10;;;1.40;;
30384;SDS011;17181;51.002;4.096;2022-10-26T05:05:52;2.67;;;1.33;;
30384;SDS011;17181;51.002;4.096;2022-10-26T05:08:22;1.13;;;1.03;;
30384;SDS011;17181;51.002;4.096;2022-10-26T05:10:48;0.87;;;0.87;;
30384;SDS011;17181;51.002;4.096;2022-10-26T05:13:14;4.60;;;1.30;;
30384;SDS011;17181;51.002;4.096;2022-10-26T05:15:40;5.03;;;1.47;;
30384;SDS011;17181;51.002;4.096;2022-10-26T05:18:06;0.80;;;0.80;;
30384;SDS011;17181;51.002;4.096;2022-10-26T05:20:33;2.57;;;1.17;;
30384;SDS011;17181;51.002;4.096;2022-10-26T05:23:02;0.67;;;0.67;;
30384;SDS011;17181;51.002;4.096;2022-10-26T05:25:30;1.87;;;0.87;;
30384;SDS011;17181;51.002;4.096;2022-10-26T05:27:58;2.97;;;0.77;;
30384;SDS011;17181;51.002;4.096;2022-10-26T05:30:25;0.50;;;0.50;;
30384;SDS011;17181;51.002;4.096;2022-10-26T05:32:52;1.03;;;0.90;;
30384;SDS011;17181;51.002;4.096;2022-10-26T05:35:19;1.33;;;1.23;;
30384;SDS011;17181;51.002;4.096;2022-10-26T05:37:44;2.70;;;1.00;;
30384;SDS011;17181;51.002;4.096;2022-10-26T05:40:10;0.57;;;0.57;;
30384;SDS011;17181;51.002;4.096;2022-10-26T05:42:36;9.53;;;1.00;;
30384;SDS011;17181;51.002;4.096;2022-10-26T05:45:02;1.30;;;0.73;;
30384;SDS011;17181;51.002;4.096;2022-10-26T05:47:28;2.83;;;1.23;;
30384;SDS011;17181;51.002;4.096;2022-10-26T05:49:54;3.07;;;0.60;;
30384;SDS011;17181;51.002;4.096;2022-10-26T05:52:20;1.47;;;1.37;;
30384;SDS011;17181;51.002;4.096;2022-10-26T05:54:45;1.47;;;0.67;;
30384;SDS011;17181;51.002;4.096;2022-10-26T05:57:11;2.83;;;1.20;;
30384;SDS011;17181;51.002;4.096;2022-10-26T05:59:38;9.00;;;1.53;;
30384;SDS011;17181;51.002;4.096;2022-10-26T06:04:42;0.53;;;0.53;;
30384;SDS011;17181;51.002;4.096;2022-10-26T06:07:18;4.13;;;1.30;;
30384;SDS011;17181;51.002;4.096;2022-10-26T06:09:45;1.00;;;1.00;;
30384;SDS011;17181;51.002;4.096;2022-10-26T06:12:11;10.47;;;1.00;;
30384;SDS011;17181;51.002;4.096;2022-10-26T06:14:38;1.43;;;1.33;;
30384;SDS011;17181;51.002;4.096;2022-10-26T06:17:30;2.90;;;0.80;;
30384;SDS011;17181;51.002;4.096;2022-10-26T06:25:44;0.70;;;0.70;;
30384;SDS011;17181;51.002;4.096;2022-10-26T06:31:00;0.93;;;0.73;;
30384;SDS011;17181;51.002;4.096;2022-10-26T06:33:26;5.37;;;1.10;;
30384;SDS011;17181;51.002;4.096;2022-10-26T06:36:05;2.67;;;1.10;;
30384;SDS011;17181;51.002;4.096;2022-10-26T06:38:33;3.53;;;1.00;;
30384;SDS011;17181;51.002;4.096;2022-10-26T06:41:00;1.67;;;1.20;;
30384;SDS011;17181;51.002;4.096;2022-10-26T06:43:28;3.27;;;0.73;;
30384;SDS011;17181;51.002;4.096;2022-10-26T06:46:04;1.30;;;0.93;;
30384;SDS011;17181;51.002;4.096;2022-10-26T06:48:52;0.87;;;0.40;;
30384;SDS011;17181;51.002;4.096;2022-10-26T06:51:50;2.23;;;0.50;;
30384;SDS011;17181;51.002;4.096;2022-10-26T06:54:47;1.37;;;0.90;;
30384;SDS011;17181;51.002;4.096;2022-10-26T06:57:20;1.70;;;0.57;;
30384;SDS011;17181;51.002;4.096;2022-10-26T06:59:56;1.17;;;1.07;;
30384;SDS011;17181;51.002;4.096;2022-10-26T07:02:28;3.70;;;1.00;;
30384;SDS011;17181;51.002;4.096;2022-10-26T07:04:54;3.00;;;1.03;;
30384;SDS011;17181;51.002;4.096;2022-10-26T07:07:21;1.17;;;1.00;;
30384;SDS011;17181;51.002;4.096;2022-10-26T07:09:54;0.63;;;0.63;;
30384;SDS011;17181;51.002;4.096;2022-10-26T07:12:20;1.67;;;0.67;;
30384;SDS011;17181;51.002;4.096;2022-10-26T07:14:46;4.23;;;1.03;;
30384;SDS011;17181;51.002;4.096;2022-10-26T07:17:12;8.50;;;0.87;;
30384;SDS011;17181;51.002;4.096;2022-10-26T07:19:38;1.10;;;1.00;;
30384;SDS011;17181;51.002;4.096;2022-10-26T07:22:04;1.20;;;1.10;;
30384;SDS011;17181;51.002;4.096;2022-10-26T07:24:30;0.60;;;0.60;;
30384;SDS011;17181;51.002;4.096;2022-10-26T07:26:57;3.97;;;1.10;;
30384;SDS011;17181;51.002;4.096;2022-10-26T07:29:23;4.90;;;0.80;;
30384;SDS011;17181;51.002;4.096;2022-10-26T07:31:51;0.23;;;0.23;;
30384;SDS011;17181;51.002;4.096;2022-10-26T07:34:17;3.57;;;1.10;;
30384;SDS011;17181;51.002;4.096;2022-10-26T07:36:43;8.97;;;1.40;;
30384;SDS011;17181;51.002;4.096;2022-10-26T07:39:09;6.73;;;1.27;;
30384;SDS011;17181;51.002;4.096;2022-10-26T07:41:35;3.77;;;1.37;;
30384;SDS011;17181;51.002;4.096;2022-10-26T07:44:00;1.53;;;0.90;;
30384;SDS011;17181;51.002;4.096;2022-10-26T07:46:27;1.83;;;1.13;;
30384;SDS011;17181;51.002;4.096;2022-10-26T07:48:53;2.70;;;1.40;;
30384;SDS011;17181;51.002;4.096;2022-10-26T07:51:18;12.10;;;0.40;;
30384;SDS011;17181;51.002;4.096;2022-10-26T07:53:45;0.70;;;0.70;;
30384;SDS011;17181;51.002;4.096;2022-10-26T07:56:11;3.23;;;0.77;;
30384;SDS011;17181;51.002;4.096;2022-10-26T07:58:37;0.60;;;0.60;;
30384;SDS011;17181;51.002;4.096;2022-10-26T08:01:04;18.60;;;1.93;;
30384;SDS011;17181;51.002;4.096;2022-10-26T13:07:18;1.33;;;0.37;;
30384;SDS011;17181;51.002;4.096;2022-10-26T13:09:53;0.93;;;0.43;;
30384;SDS011;17181;51.002;4.096;2022-10-26T13:12:34;0.97;;;0.40;;
30384;SDS011;17181;51.002;4.096;2022-10-26T13:15:03;1.27;;;0.27;;
30384;SDS011;17181;51.002;4.096;2022-10-26T13:17:43;1.60;;;0.10;;
30384;SDS011;17181;51.002;4.096;2022-10-26T13:20:50;0.60;;;0.60;;
30384;SDS011;17181;51.002;4.096;2022-10-26T13:23:28;0.63;;;0.13;;
30384;SDS011;17181;51.002;4.096;2022-10-26T13:31:03;0.57;;;0.57;;
30384;SDS011;17181;51.002;4.096;2022-10-26T13:33:35;0.43;;;0.43;;
30384;SDS011;17181;51.002;4.096;2022-10-26T13:38:56;0.00;;;0.00;;
30384;SDS011;17181;51.002;4.096;2022-10-26T13:41:25;0.77;;;0.27;;
30384;SDS011;17181;51.002;4.096;2022-10-26T13:43:57;0.33;;;0.33;;
30384;SDS011;17181;51.002;4.096;2022-10-26T13:46:27;0.20;;;0.20;;
30384;SDS011;17181;51.002;4.096;2022-10-26T13:48:57;2.80;;;1.27;;
30384;SDS011;17181;51.002;4.096;2022-10-26T13:51:31;7.37;;;0.30;;
30384;SDS011;17181;51.002;4.096;2022-10-26T13:54:27;3.47;;;0.60;;
30384;SDS011;17181;51.002;4.096;2022-10-26T13:57:12;1.27;;;0.50;;
30384;SDS011;17181;51.002;4.096;2022-10-26T13:59:45;2.90;;;0.60;;
30384;SDS011;17181;51.002;4.096;2022-10-26T14:02:22;1.43;;;0.57;;
30384;SDS011;17181;51.002;4.096;2022-10-26T14:04:57;3.93;;;0.53;;
30384;SDS011;17181;51.002;4.096;2022-10-26T14:07:25;6.87;;;0.80;;
30384;SDS011;17181;51.002;4.096;2022-10-26T14:10:02;0.17;;;0.17;;
30384;SDS011;17181;51.002;4.096;2022-10-26T14:12:28;4.13;;;1.07;;
30384;SDS011;17181;51.002;4.096;2022-10-26T14:14:56;0.10;;;0.10;;
30384;SDS011;17181;51.002;4.096;2022-10-26T14:17:30;3.50;;;1.37;;
30384;SDS011;17181;51.002;4.096;2022-10-26T14:19:56;7.37;;;1.23;;
30384;SDS011;17181;51.002;4.096;2022-10-26T14:22:23;6.50;;;0.93;;
30384;SDS011;17181;51.002;4.096;2022-10-26T14:24:57;1.33;;;0.30;;
30384;SDS011;17181;51.002;4.096;2022-10-26T14:27:26;10.27;;;0.83;;
30384;SDS011;17181;51.002;4.096;2022-10-26T14:29:57;5.93;;;0.93;;
30384;SDS011;17181;51.002;4.096;2022-10-26T14:32:30;0.87;;;0.77;;
30384;SDS011;17181;51.002;4.096;2022-10-26T14:34:57;2.30;;;1.00;;
30384;SDS011;17181;51.002;4.096;2022-10-26T14:39:54;4.13;;;0.63;;
30384;SDS011;17181;51.002;4.096;2022-10-26T14:42:30;2.10;;;0.30;;
30384;SDS011;17181;51.002;4.096;2022-10-26T14:44:59;0.27;;;0.27;;
30384;SDS011;17181;51.002;4.096;2022-10-26T14:47:30;0.10;;;0.10;;
30384;SDS011;17181;51.002;4.096;2022-10-26T14:49:58;1.50;;;0.60;;
30384;SDS011;17181;51.002;4.096;2022-10-26T14:52:26;0.10;;;0.10;;
30384;SDS011;17181;51.002;4.096;2022-10-26T14:54:56;3.80;;;0.37;;
30384;SDS011;17181;51.002;4.096;2022-10-26T14:57:30;0.22;;;0.22;;
30384;SDS011;17181;51.002;4.096;2022-10-26T15:00:12;1.00;;;0.30;;
30384;SDS011;17181;51.002;4.096;2022-10-26T15:02:41;2.35;;;1.02;;
30384;SDS011;17181;51.002;4.096;2022-10-26T15:05:16;3.33;;;0.80;;
30384;SDS011;17181;51.002;4.096;2022-10-26T15:07:42;0.75;;;0.65;;
30384;SDS011;17181;51.002;4.096;2022-10-26T15:16:08;1.17;;;0.60;;
30384;SDS011;17181;51.002;4.096;2022-10-26T15:18:49;2.25;;;0.75;;
30384;SDS011;17181;51.002;4.096;2022-10-26T15:21:20;5.55;;;0.63;;
30384;SDS011;17181;51.002;4.096;2022-10-26T15:23:49;4.10;;;1.13;;
30384;SDS011;17181;51.002;4.096;2022-10-26T15:26:16;4.63;;;0.90;;
30384;SDS011;17181;51.002;4.096;2022-10-26T15:28:42;3.17;;;1.97;;
30384;SDS011;17181;51.002;4.096;2022-10-26T15:34:05;0.93;;;0.93;;
30384;SDS011;17181;51.002;4.096;2022-10-26T15:36:29;0.20;;;0.20;;
30384;SDS011;17181;51.002;4.096;2022-10-26T15:38:56;7.40;;;1.27;;
30384;SDS011;17181;51.002;4.096;2022-10-26T15:41:28;3.77;;;0.83;;
30384;SDS011;17181;51.002;4.096;2022-10-26T15:43:59;2.07;;;0.80;;
30384;SDS011;17181;51.002;4.096;2022-10-26T15:46:33;1.17;;;0.60;;
30384;SDS011;17181;51.002;4.096;2022-10-26T15:49:02;6.97;;;0.73;;
30384;SDS011;17181;51.002;4.096;2022-10-26T15:51:29;1.53;;;0.90;;
30384;SDS011;17181;51.002;4.096;2022-10-26T15:54:00;5.23;;;1.23;;
30384;SDS011;17181;51.002;4.096;2022-10-26T15:56:27;11.13;;;1.10;;
30384;SDS011;17181;51.002;4.096;2022-10-26T15:58:54;8.17;;;0.87;;
30384;SDS011;17181;51.002;4.096;2022-10-26T16:01:22;3.67;;;0.80;;
30384;SDS011;17181;51.002;4.096;2022-10-26T16:03:49;3.03;;;1.03;;
30384;SDS011;17181;51.002;4.096;2022-10-26T16:06:16;3.43;;;1.03;;
30384;SDS011;17181;51.002;4.096;2022-10-26T16:08:48;5.30;;;0.77;;
30384;SDS011;17181;51.002;4.096;2022-10-26T16:11:16;2.00;;;0.80;;
30384;SDS011;17181;51.002;4.096;2022-10-26T16:13:42;8.77;;;0.67;;
30384;SDS011;17181;51.002;4.096;2022-10-26T16:16:11;0.67;;;0.60;;
30384;SDS011;17181;51.002;4.096;2022-10-26T16:18:39;3.13;;;1.20;;
30384;SDS011;17181;51.002;4.096;2022-10-26T16:21:05;1.60;;;0.90;;
30384;SDS011;17181;51.002;4.096;2022-10-26T16:23:35;2.57;;;1.07;;
30384;SDS011;17181;51.002;4.096;2022-10-26T16:26:02;4.67;;;1.00;;
30384;SDS011;17181;51.002;4.096;2022-10-26T16:28:28;1.37;;;0.50;;
30384;SDS011;17181;51.002;4.096;2022-10-26T16:31:01;3.37;;;1.10;;
30384;SDS011;17181;51.002;4.096;2022-10-26T16:33:32;0.83;;;0.50;;
30384;SDS011;17181;51.002;4.096;2022-10-26T16:35:59;0.87;;;0.23;;
30384;SDS011;17181;51.002;4.096;2022-10-26T16:38:25;2.93;;;0.67;;
30384;SDS011;17181;51.002;4.096;2022-10-26T16:41:14;1.80;;;0.53;;
30384;SDS011;17181;51.002;4.096;2022-10-26T16:43:41;4.13;;;0.93;;
30384;SDS011;17181;51.002;4.096;2022-10-26T16:46:09;2.57;;;0.83;;
30384;SDS011;17181;51.002;4.096;2022-10-26T16:48:38;8.53;;;2.53;;
30384;SDS011;17181;51.002;4.096;2022-10-26T16:51:08;4.33;;;2.30;;
30384;SDS011;17181;51.002;4.096;2022-10-26T16:53:35;7.87;;;4.20;;
30384;SDS011;17181;51.002;4.096;2022-10-26T16:56:06;5.93;;;2.83;;
30384;SDS011;17181;51.002;4.096;2022-10-26T16:58:36;3.23;;;1.40;;
30384;SDS011;17181;51.002;4.096;2022-10-26T17:01:03;5.77;;;1.90;;
30384;SDS011;17181;51.002;4.096;2022-10-26T17:03:29;7.93;;;2.53;;
30384;SDS011;17181;51.002;4.096;2022-10-26T17:05:56;5.10;;;1.43;;
30384;SDS011;17181;51.002;4.096;2022-10-26T17:08:26;2.23;;;1.33;;
30384;SDS011;17181;51.002;4.096;2022-10-26T17:10:53;10.60;;;2.60;;
30384;SDS011;17181;51.002;4.096;2022-10-26T17:13:20;2.20;;;1.43;;
30384;SDS011;17181;51.002;4.096;2022-10-26T17:15:46;12.73;;;2.20;;
30384;SDS011;17181;51.002;4.096;2022-10-26T17:18:12;6.03;;;1.40;;
30384;SDS011;17181;51.002;4.096;2022-10-26T17:20:38;1.13;;;1.10;;
30384;SDS011;17181;51.002;4.096;2022-10-26T17:23:04;11.77;;;1.77;;
30384;SDS011;17181;51.002;4.096;2022-10-26T17:25:34;2.20;;;1.17;;
30384;SDS011;17181;51.002;4.096;2022-10-26T17:28:00;3.33;;;1.80;;
30384;SDS011;17181;51.002;4.096;2022-10-26T17:30:27;3.17;;;1.30;;
30384;SDS011;17181;51.002;4.096;2022-10-26T17:32:53;14.67;;;1.43;;
30384;SDS011;17181;51.002;4.096;2022-10-26T17:35:19;2.47;;;0.90;;
30384;SDS011;17181;51.002;4.096;2022-10-26T17:37:45;6.80;;;1.80;;
30384;SDS011;17181;51.002;4.096;2022-10-26T17:40:11;8.07;;;1.40;;
30384;SDS011;17181;51.002;4.096;2022-10-26T17:42:36;4.50;;;1.33;;
30384;SDS011;17181;51.002;4.096;2022-10-26T17:45:02;6.40;;;1.37;;
30384;SDS011;17181;51.002;4.096;2022-10-26T17:47:28;4.70;;;1.27;;
30384;SDS011;17181;51.002;4.096;2022-10-26T17:49:54;10.13;;;2.50;;
30384;SDS011;17181;51.002;4.096;2022-10-26T17:52:20;8.50;;;1.83;;
30384;SDS011;17181;51.002;4.096;2022-10-26T17:54:49;12.57;;;1.17;;
30384;SDS011;17181;51.002;4.096;2022-10-26T17:57:15;4.97;;;1.10;;
30384;SDS011;17181;51.002;4.096;2022-10-26T17:59:41;2.47;;;0.90;;
30384;SDS011;17181;51.002;4.096;2022-10-26T18:02:07;4.37;;;1.83;;
30384;SDS011;17181;51.002;4.096;2022-10-26T18:04:34;0.97;;;0.63;;
30384;SDS011;17181;51.002;4.096;2022-10-26T18:07:00;2.77;;;0.87;;
30384;SDS011;17181;51.002;4.096;2022-10-26T18:09:26;5.83;;;1.50;;
30384;SDS011;17181;51.002;4.096;2022-10-26T18:11:52;2.17;;;1.17;;
30384;SDS011;17181;51.002;4.096;2022-10-26T18:14:17;1.60;;;1.17;;
30384;SDS011;17181;51.002;4.096;2022-10-26T18:16:43;0.97;;;0.90;;
30384;SDS011;17181;51.002;4.096;2022-10-26T18:19:09;3.90;;;0.93;;
30384;SDS011;17181;51.002;4.096;2022-10-26T18:21:35;8.23;;;1.60;;
30384;SDS011;17181;51.002;4.096;2022-10-26T18:24:04;2.77;;;1.43;;
30384;SDS011;17181;51.002;4.096;2022-10-26T18:26:31;2.07;;;1.30;;
30384;SDS011;17181;51.002;4.096;2022-10-26T18:28:58;1.73;;;1.27;;
30384;SDS011;17181;51.002;4.096;2022-10-26T18:31:26;4.00;;;1.93;;
30384;SDS011;17181;51.002;4.096;2022-10-26T18:33:56;4.87;;;1.30;;
30384;SDS011;17181;51.002;4.096;2022-10-26T18:36:23;2.33;;;1.33;;
30384;SDS011;17181;51.002;4.096;2022-10-26T18:38:50;5.83;;;1.83;;
30384;SDS011;17181;51.002;4.096;2022-10-26T18:41:17;1.30;;;1.20;;
30384;SDS011;17181;51.002;4.096;2022-10-26T18:43:44;9.37;;;1.77;;
30384;SDS011;17181;51.002;4.096;2022-10-26T18:46:16;4.67;;;1.30;;
30384;SDS011;17181;51.002;4.096;2022-10-26T18:48:47;4.20;;;1.40;;
30384;SDS011;17181;51.002;4.096;2022-10-26T18:51:14;2.27;;;0.97;;
30384;SDS011;17181;51.002;4.096;2022-10-26T18:53:43;4.50;;;1.30;;
30384;SDS011;17181;51.002;4.096;2022-10-26T18:56:10;2.47;;;1.77;;
30384;SDS011;17181;51.002;4.096;2022-10-26T18:58:39;7.00;;;1.67;;
30384;SDS011;17181;51.002;4.096;2022-10-26T19:03:46;4.10;;;1.50;;
30384;SDS011;17181;51.002;4.096;2022-10-26T19:06:21;2.07;;;1.57;;
30384;SDS011;17181;51.002;4.096;2022-10-26T19:08:57;1.93;;;1.33;;
30384;SDS011;17181;51.002;4.096;2022-10-26T19:11:25;1.93;;;1.53;;
30384;SDS011;17181;51.002;4.096;2022-10-26T19:13:52;1.30;;;0.90;;
30384;SDS011;17181;51.002;4.096;2022-10-26T19:16:20;8.10;;;1.40;;
30384;SDS011;17181;51.002;4.096;2022-10-26T19:18:47;7.40;;;1.13;;
30384;SDS011;17181;51.002;4.096;2022-10-26T19:21:17;7.20;;;1.20;;
30384;SDS011;17181;51.002;4.096;2022-10-26T19:23:47;7.70;;;1.77;;
30384;SDS011;17181;51.002;4.096;2022-10-26T19:26:16;1.60;;;1.40;;
30384;SDS011;17181;51.002;4.096;2022-10-26T19:28:47;4.80;;;2.63;;
30384;SDS011;17181;51.002;4.096;2022-10-26T19:31:19;1.70;;;1.27;;
30384;SDS011;17181;51.002;4.096;2022-10-26T19:33:45;1.70;;;1.60;;
30384;SDS011;17181;51.002;4.096;2022-10-26T19:36:12;1.87;;;1.10;;
30384;SDS011;17181;51.002;4.096;2022-10-26T19:38:38;2.60;;;1.40;;
30384;SDS011;17181;51.002;4.096;2022-10-26T19:41:05;2.53;;;1.50;;
30384;SDS011;17181;51.002;4.096;2022-10-26T19:43:32;6.83;;;1.20;;
30384;SDS011;17181;51.002;4.096;2022-10-26T19:46:09;3.23;;;1.57;;
30384;SDS011;17181;51.002;4.096;2022-10-26T19:48:36;0.93;;;0.83;;
30384;SDS011;17181;51.002;4.096;2022-10-26T19:51:02;1.80;;;1.03;;
30384;SDS011;17181;51.002;4.096;2022-10-26T19:53:28;2.30;;;1.07;;
30384;SDS011;17181;51.002;4.096;2022-10-26T19:55:55;0.63;;;0.63;;
30384;SDS011;17181;51.002;4.096;2022-10-26T19:58:22;4.63;;;1.67;;
30384;SDS011;17181;51.002;4.096;2022-10-26T20:00:56;5.67;;;1.00;;
30384;SDS011;17181;51.002;4.096;2022-10-26T20:03:22;1.07;;;0.93;;
30384;SDS011;17181;51.002;4.096;2022-10-26T20:05:48;3.63;;;1.53;;
30384;SDS011;17181;51.002;4.096;2022-10-26T20:08:14;2.40;;;1.27;;
30384;SDS011;17181;51.002;4.096;2022-10-26T20:10:40;1.57;;;0.90;;
30384;SDS011;17181;51.002;4.096;2022-10-26T20:13:07;1.13;;;1.03;;
30384;SDS011;17181;51.002;4.096;2022-10-26T20:15:34;2.20;;;1.30;;
30384;SDS011;17181;51.002;4.096;2022-10-26T20:18:00;3.23;;;1.20;;
30384;SDS011;17181;51.002;4.096;2022-10-26T20:20:26;7.43;;;1.03;;
30384;SDS011;17181;51.002;4.096;2022-10-26T20:22:55;1.63;;;1.00;;
30384;SDS011;17181;51.002;4.096;2022-10-26T20:25:21;10.80;;;1.30;;
30384;SDS011;17181;51.002;4.096;2022-10-26T20:27:47;1.53;;;0.93;;
30384;SDS011;17181;51.002;4.096;2022-10-26T20:30:13;1.07;;;0.77;;
30384;SDS011;17181;51.002;4.096;2022-10-26T20:32:38;6.80;;;1.00;;
30384;SDS011;17181;51.002;4.096;2022-10-26T20:35:04;2.73;;;1.30;;
30384;SDS011;17181;51.002;4.096;2022-10-26T20:37:30;0.93;;;0.90;;
30384;SDS011;17181;51.002;4.096;2022-10-26T20:39:57;1.30;;;0.83;;
30384;SDS011;17181;51.002;4.096;2022-10-26T20:42:24;6.60;;;1.40;;
30384;SDS011;17181;51.002;4.096;2022-10-26T20:47:52;4.53;;;1.60;;
30384;SDS011;17181;51.002;4.096;2022-10-26T20:50:19;7.13;;;1.60;;
30384;SDS011;17181;51.002;4.096;2022-10-26T20:55:48;7.57;;;1.43;;
30384;SDS011;17181;51.002;4.096;2022-10-26T20:58:39;2.93;;;1.27;;
30384;SDS011;17181;51.002;4.096;2022-10-26T21:01:06;0.70;;;0.70;;
30384;SDS011;17181;51.002;4.096;2022-10-26T21:03:39;2.77;;;1.60;;
30384;SDS011;17181;51.002;4.096;2022-10-26T21:06:04;7.13;;;2.07;;